sensor_id;sensor_type;location;lat;lon;timestamp;P1;durP1;ratioP1;P2;durP2;ratioP2
18917;SDS011;9591;52.742;13.650;2022-09-12T00:01:36;3.93;;;2.90;;
18917;SDS011;9591;52.742;13.650;2022-09-12T00:04:23;3.60;;;3.03;;
18917;SDS011;9591;52.742;13.650;2022-09-12T00:07:10;6.20;;;3.40;;
18917;SDS011;9591;52.742;13.650;2022-09-12T00:09:57;8.93;;;3.40;;
18917;SDS011;9591;52.742;13.650;2022-09-12T00:12:44;3.57;;;3.07;;
18917;SDS011;9591;52.742;13.650;2022-09-12T00:15:31;5.00;;;2.83;;
18917;SDS011;9591;52.742;13.650;2022-09-12T00:18:19;3.57;;;3.10;;
18917;SDS011;9591;52.742;13.650;2022-09-12T00:21:06;4.83;;;3.53;;
18917;SDS011;9591;52.742;13.650;2022-09-12T00:23:53;5.23;;;3.27;;
18917;SDS011;9591;52.742;13.650;2022-09-12T00:26:40;8.70;;;3.40;;
18917;SDS011;9591;52.742;13.650;2022-09-12T00:29:27;3.23;;;2.90;;
18917;SDS011;9591;52.742;13.650;2022-09-12T00:32:14;4.50;;;2.83;;
18917;SDS011;9591;52.742;13.650;2022-09-12T00:35:02;4.23;;;3.00;;
18917;SDS011;9591;52.742;13.650;2022-09-12T00:37:49;5.07;;;2.97;;
18917;SDS011;9591;52.742;13.650;2022-09-12T00:40:36;5.30;;;2.80;;
18917;SDS011;9591;52.742;13.650;2022-09-12T00:43:33;3.53;;;2.80;;
18917;SDS011;9591;52.742;13.650;2022-09-12T00:46:27;10.93;;;3.13;;
18917;SDS011;9591;52.742;13.650;2022-09-12T00:49:20;9.27;;;3.20;;
18917;SDS011;9591;52.742;13.650;2022-09-12T00:52:14;4.20;;;2.60;;
18917;SDS011;9591;52.742;13.650;2022-09-12T00:55:07;5.57;;;2.73;;
18917;SDS011;9591;52.742;13.650;2022-09-12T00:57:58;5.93;;;3.50;;
18917;SDS011;9591;52.742;13.650;2022-09-12T01:00:49;3.43;;;3.13;;
18917;SDS011;9591;52.742;13.650;2022-09-12T01:03:36;4.47;;;3.43;;
18917;SDS011;9591;52.742;13.650;2022-09-12T01:06:25;7.50;;;3.63;;
18917;SDS011;9591;52.742;13.650;2022-09-12T01:09:16;4.80;;;3.00;;
18917;SDS011;9591;52.742;13.650;2022-09-12T01:12:06;4.87;;;3.27;;
18917;SDS011;9591;52.742;13.650;2022-09-12T01:14:53;9.80;;;2.80;;
18917;SDS011;9591;52.742;13.650;2022-09-12T01:17:44;3.93;;;2.97;;
18917;SDS011;9591;52.742;13.650;2022-09-12T01:30:44;4.07;;;2.90;;
18917;SDS011;9591;52.742;13.650;2022-09-12T01:33:47;7.33;;;3.07;;
18917;SDS011;9591;52.742;13.650;2022-09-12T01:36:42;5.00;;;2.80;;
18917;SDS011;9591;52.742;13.650;2022-09-12T01:39:42;4.20;;;3.00;;
18917;SDS011;9591;52.742;13.650;2022-09-12T01:42:37;6.47;;;2.60;;
18917;SDS011;9591;52.742;13.650;2022-09-12T01:45:32;4.17;;;2.93;;
18917;SDS011;9591;52.742;13.650;2022-09-12T01:48:26;3.10;;;2.80;;
18917;SDS011;9591;52.742;13.650;2022-09-12T01:51:18;3.17;;;2.87;;
18917;SDS011;9591;52.742;13.650;2022-09-12T01:54:11;3.27;;;2.97;;
18917;SDS011;9591;52.742;13.650;2022-09-12T01:57:03;12.87;;;2.80;;
18917;SDS011;9591;52.742;13.650;2022-09-12T01:59:57;7.07;;;2.90;;
18917;SDS011;9591;52.742;13.650;2022-09-12T02:02:58;4.30;;;2.67;;
18917;SDS011;9591;52.742;13.650;2022-09-12T02:05:51;3.33;;;2.47;;
18917;SDS011;9591;52.742;13.650;2022-09-12T02:08:42;3.67;;;2.83;;
18917;SDS011;9591;52.742;13.650;2022-09-12T02:11:33;6.13;;;2.90;;
18917;SDS011;9591;52.742;13.650;2022-09-12T02:14:24;7.30;;;2.87;;
18917;SDS011;9591;52.742;13.650;2022-09-12T02:17:15;5.13;;;2.87;;
18917;SDS011;9591;52.742;13.650;2022-09-12T02:20:07;5.30;;;3.20;;
18917;SDS011;9591;52.742;13.650;2022-09-12T02:23:21;5.20;;;3.30;;
18917;SDS011;9591;52.742;13.650;2022-09-12T02:26:11;7.03;;;3.20;;
18917;SDS011;9591;52.742;13.650;2022-09-12T02:29:03;7.83;;;3.80;;
18917;SDS011;9591;52.742;13.650;2022-09-12T02:31:51;7.80;;;4.10;;
18917;SDS011;9591;52.742;13.650;2022-09-12T02:34:43;3.63;;;2.90;;
18917;SDS011;9591;52.742;13.650;2022-09-12T02:37:40;10.27;;;3.33;;
18917;SDS011;9591;52.742;13.650;2022-09-12T02:40:37;4.07;;;3.10;;
18917;SDS011;9591;52.742;13.650;2022-09-12T02:43:24;3.40;;;3.10;;
18917;SDS011;9591;52.742;13.650;2022-09-12T02:46:12;6.77;;;2.97;;
18917;SDS011;9591;52.742;13.650;2022-09-12T02:49:05;5.30;;;3.20;;
18917;SDS011;9591;52.742;13.650;2022-09-12T02:51:53;6.77;;;3.03;;
18917;SDS011;9591;52.742;13.650;2022-09-12T02:54:40;7.57;;;3.23;;
18917;SDS011;9591;52.742;13.650;2022-09-12T02:57:30;6.53;;;3.23;;
18917;SDS011;9591;52.742;13.650;2022-09-12T03:00:16;4.30;;;3.23;;
18917;SDS011;9591;52.742;13.650;2022-09-12T03:03:08;5.77;;;2.90;;
18917;SDS011;9591;52.742;13.650;2022-09-12T03:06:08;3.83;;;3.33;;
18917;SDS011;9591;52.742;13.650;2022-09-12T03:09:04;7.13;;;3.10;;
18917;SDS011;9591;52.742;13.650;2022-09-12T03:12:01;6.27;;;3.20;;
18917;SDS011;9591;52.742;13.650;2022-09-12T03:14:59;3.67;;;3.23;;
18917;SDS011;9591;52.742;13.650;2022-09-12T03:18:03;6.10;;;3.53;;
18917;SDS011;9591;52.742;13.650;2022-09-12T03:20:57;4.07;;;3.03;;
18917;SDS011;9591;52.742;13.650;2022-09-12T03:23:50;5.10;;;3.43;;
18917;SDS011;9591;52.742;13.650;2022-09-12T03:26:48;4.23;;;3.67;;
18917;SDS011;9591;52.742;13.650;2022-09-12T03:29:40;6.17;;;3.63;;
18917;SDS011;9591;52.742;13.650;2022-09-12T03:32:40;7.00;;;3.40;;
18917;SDS011;9591;52.742;13.650;2022-09-12T03:35:27;6.33;;;3.60;;
18917;SDS011;9591;52.742;13.650;2022-09-12T03:38:15;10.70;;;3.57;;
18917;SDS011;9591;52.742;13.650;2022-09-12T03:41:02;12.80;;;3.40;;
18917;SDS011;9591;52.742;13.650;2022-09-12T03:43:49;6.00;;;3.23;;
18917;SDS011;9591;52.742;13.650;2022-09-12T03:46:35;6.20;;;3.13;;
18917;SDS011;9591;52.742;13.650;2022-09-12T03:49:24;7.03;;;3.20;;
18917;SDS011;9591;52.742;13.650;2022-09-12T03:52:11;5.27;;;4.23;;
18917;SDS011;9591;52.742;13.650;2022-09-12T03:54:57;9.80;;;3.37;;
18917;SDS011;9591;52.742;13.650;2022-09-12T03:57:44;8.90;;;4.27;;
18917;SDS011;9591;52.742;13.650;2022-09-12T04:00:31;4.47;;;3.40;;
18917;SDS011;9591;52.742;13.650;2022-09-12T04:03:17;5.53;;;4.00;;
18917;SDS011;9591;52.742;13.650;2022-09-12T04:06:06;4.47;;;3.30;;
18917;SDS011;9591;52.742;13.650;2022-09-12T04:08:53;7.83;;;3.73;;
18917;SDS011;9591;52.742;13.650;2022-09-12T04:11:40;4.70;;;3.07;;
18917;SDS011;9591;52.742;13.650;2022-09-12T04:14:27;3.50;;;3.20;;
18917;SDS011;9591;52.742;13.650;2022-09-12T04:17:14;7.00;;;4.00;;
18917;SDS011;9591;52.742;13.650;2022-09-12T04:20:01;3.67;;;3.17;;
18917;SDS011;9591;52.742;13.650;2022-09-12T04:22:49;4.03;;;3.63;;
18917;SDS011;9591;52.742;13.650;2022-09-12T04:25:36;3.53;;;3.00;;
18917;SDS011;9591;52.742;13.650;2022-09-12T04:28:23;4.03;;;3.03;;
18917;SDS011;9591;52.742;13.650;2022-09-12T04:31:11;4.90;;;3.90;;
18917;SDS011;9591;52.742;13.650;2022-09-12T04:33:59;6.30;;;3.43;;
18917;SDS011;9591;52.742;13.650;2022-09-12T04:36:46;4.47;;;3.40;;
18917;SDS011;9591;52.742;13.650;2022-09-12T04:39:35;3.50;;;3.20;;
18917;SDS011;9591;52.742;13.650;2022-09-12T04:42:21;10.10;;;3.43;;
18917;SDS011;9591;52.742;13.650;2022-09-12T04:45:08;4.23;;;3.20;;
18917;SDS011;9591;52.742;13.650;2022-09-12T04:47:57;4.70;;;3.20;;
18917;SDS011;9591;52.742;13.650;2022-09-12T04:50:44;6.73;;;3.20;;
18917;SDS011;9591;52.742;13.650;2022-09-12T04:53:30;4.33;;;3.23;;
18917;SDS011;9591;52.742;13.650;2022-09-12T04:56:19;7.37;;;3.03;;
18917;SDS011;9591;52.742;13.650;2022-09-12T04:59:06;16.43;;;3.23;;
18917;SDS011;9591;52.742;13.650;2022-09-12T05:01:53;16.03;;;3.70;;
18917;SDS011;9591;52.742;13.650;2022-09-12T05:04:40;14.83;;;3.73;;
18917;SDS011;9591;52.742;13.650;2022-09-12T05:07:27;17.63;;;4.07;;
18917;SDS011;9591;52.742;13.650;2022-09-12T05:10:14;9.93;;;3.40;;
18917;SDS011;9591;52.742;13.650;2022-09-12T05:13:02;5.90;;;3.37;;
18917;SDS011;9591;52.742;13.650;2022-09-12T05:15:55;7.30;;;3.40;;
18917;SDS011;9591;52.742;13.650;2022-09-12T05:18:43;8.17;;;3.80;;
18917;SDS011;9591;52.742;13.650;2022-09-12T05:21:31;12.30;;;4.20;;
18917;SDS011;9591;52.742;13.650;2022-09-12T05:24:18;7.87;;;3.70;;
18917;SDS011;9591;52.742;13.650;2022-09-12T05:27:05;8.83;;;3.80;;
18917;SDS011;9591;52.742;13.650;2022-09-12T05:29:54;10.83;;;4.10;;
18917;SDS011;9591;52.742;13.650;2022-09-12T05:32:40;12.70;;;3.30;;
18917;SDS011;9591;52.742;13.650;2022-09-12T05:35:27;15.30;;;3.60;;
18917;SDS011;9591;52.742;13.650;2022-09-12T05:38:14;12.77;;;3.80;;
18917;SDS011;9591;52.742;13.650;2022-09-12T05:41:01;15.60;;;3.80;;
18917;SDS011;9591;52.742;13.650;2022-09-12T05:43:51;8.93;;;3.60;;
18917;SDS011;9591;52.742;13.650;2022-09-12T05:46:40;23.50;;;4.60;;
18917;SDS011;9591;52.742;13.650;2022-09-12T05:49:28;16.07;;;3.83;;
18917;SDS011;9591;52.742;13.650;2022-09-12T05:52:15;16.43;;;4.57;;
18917;SDS011;9591;52.742;13.650;2022-09-12T05:55:01;27.77;;;4.63;;
18917;SDS011;9591;52.742;13.650;2022-09-12T05:57:49;16.43;;;4.20;;
18917;SDS011;9591;52.742;13.650;2022-09-12T06:00:36;14.53;;;3.90;;
18917;SDS011;9591;52.742;13.650;2022-09-12T06:03:24;15.93;;;4.33;;
18917;SDS011;9591;52.742;13.650;2022-09-12T06:06:11;35.93;;;4.40;;
18917;SDS011;9591;52.742;13.650;2022-09-12T06:09:00;39.37;;;5.00;;
18917;SDS011;9591;52.742;13.650;2022-09-12T06:11:48;43.67;;;14.73;;
18917;SDS011;9591;52.742;13.650;2022-09-12T06:14:36;32.47;;;10.57;;
18917;SDS011;9591;52.742;13.650;2022-09-12T06:17:22;13.53;;;5.83;;
18917;SDS011;9591;52.742;13.650;2022-09-12T06:20:11;16.73;;;6.40;;
18917;SDS011;9591;52.742;13.650;2022-09-12T06:22:57;16.50;;;7.33;;
18917;SDS011;9591;52.742;13.650;2022-09-12T06:25:45;10.10;;;6.93;;
18917;SDS011;9591;52.742;13.650;2022-09-12T06:28:33;9.43;;;5.80;;
18917;SDS011;9591;52.742;13.650;2022-09-12T06:31:22;10.87;;;5.77;;
18917;SDS011;9591;52.742;13.650;2022-09-12T06:34:12;6.53;;;4.33;;
18917;SDS011;9591;52.742;13.650;2022-09-12T06:37:01;6.17;;;3.97;;
18917;SDS011;9591;52.742;13.650;2022-09-12T06:39:48;5.50;;;3.97;;
18917;SDS011;9591;52.742;13.650;2022-09-12T06:42:35;7.77;;;4.40;;
18917;SDS011;9591;52.742;13.650;2022-09-12T06:45:22;8.20;;;4.63;;
18917;SDS011;9591;52.742;13.650;2022-09-12T06:48:09;5.30;;;3.90;;
18917;SDS011;9591;52.742;13.650;2022-09-12T06:50:57;8.40;;;4.93;;
18917;SDS011;9591;52.742;13.650;2022-09-12T06:53:46;9.23;;;5.27;;
18917;SDS011;9591;52.742;13.650;2022-09-12T06:56:36;6.30;;;4.67;;
18917;SDS011;9591;52.742;13.650;2022-09-12T06:59:22;10.67;;;5.10;;
18917;SDS011;9591;52.742;13.650;2022-09-12T07:02:10;7.23;;;4.50;;
18917;SDS011;9591;52.742;13.650;2022-09-12T07:04:56;8.03;;;4.53;;
18917;SDS011;9591;52.742;13.650;2022-09-12T07:07:43;7.30;;;5.07;;
18917;SDS011;9591;52.742;13.650;2022-09-12T07:10:31;11.27;;;5.03;;
18917;SDS011;9591;52.742;13.650;2022-09-12T07:13:18;7.53;;;4.60;;
18917;SDS011;9591;52.742;13.650;2022-09-12T07:16:05;6.53;;;4.70;;
18917;SDS011;9591;52.742;13.650;2022-09-12T07:18:53;9.27;;;4.60;;
18917;SDS011;9591;52.742;13.650;2022-09-12T07:21:41;9.87;;;4.40;;
18917;SDS011;9591;52.742;13.650;2022-09-12T07:24:28;6.57;;;4.30;;
18917;SDS011;9591;52.742;13.650;2022-09-12T07:27:17;6.73;;;4.50;;
18917;SDS011;9591;52.742;13.650;2022-09-12T07:30:04;8.83;;;4.93;;
18917;SDS011;9591;52.742;13.650;2022-09-12T07:32:52;7.60;;;4.77;;
18917;SDS011;9591;52.742;13.650;2022-09-12T07:35:39;6.80;;;4.47;;
18917;SDS011;9591;52.742;13.650;2022-09-12T07:38:25;6.90;;;4.77;;
18917;SDS011;9591;52.742;13.650;2022-09-12T07:41:13;7.53;;;4.20;;
18917;SDS011;9591;52.742;13.650;2022-09-12T07:44:03;8.80;;;4.20;;
18917;SDS011;9591;52.742;13.650;2022-09-12T07:46:50;10.20;;;4.30;;
18917;SDS011;9591;52.742;13.650;2022-09-12T07:49:37;7.03;;;4.30;;
18917;SDS011;9591;52.742;13.650;2022-09-12T07:52:24;7.53;;;4.80;;
18917;SDS011;9591;52.742;13.650;2022-09-12T07:55:10;7.03;;;4.70;;
18917;SDS011;9591;52.742;13.650;2022-09-12T07:57:57;5.77;;;4.27;;
18917;SDS011;9591;52.742;13.650;2022-09-12T08:00:45;8.10;;;4.50;;
18917;SDS011;9591;52.742;13.650;2022-09-12T08:03:32;11.20;;;4.67;;
18917;SDS011;9591;52.742;13.650;2022-09-12T08:06:20;5.67;;;4.40;;
18917;SDS011;9591;52.742;13.650;2022-09-12T08:09:08;6.60;;;4.20;;
18917;SDS011;9591;52.742;13.650;2022-09-12T08:11:56;7.30;;;4.50;;
18917;SDS011;9591;52.742;13.650;2022-09-12T08:14:43;7.30;;;4.40;;
18917;SDS011;9591;52.742;13.650;2022-09-12T08:17:31;4.57;;;3.90;;
18917;SDS011;9591;52.742;13.650;2022-09-12T08:20:18;7.23;;;4.20;;
18917;SDS011;9591;52.742;13.650;2022-09-12T08:23:10;3.73;;;3.03;;
18917;SDS011;9591;52.742;13.650;2022-09-12T08:25:58;2.80;;;2.50;;
18917;SDS011;9591;52.742;13.650;2022-09-12T08:28:50;5.70;;;3.50;;
18917;SDS011;9591;52.742;13.650;2022-09-12T08:31:37;3.77;;;2.47;;
18917;SDS011;9591;52.742;13.650;2022-09-12T08:34:27;3.80;;;2.60;;
18917;SDS011;9591;52.742;13.650;2022-09-12T08:37:13;3.13;;;2.20;;
18917;SDS011;9591;52.742;13.650;2022-09-12T08:40:01;3.43;;;2.00;;
18917;SDS011;9591;52.742;13.650;2022-09-12T08:42:53;4.10;;;2.40;;
18917;SDS011;9591;52.742;13.650;2022-09-12T08:45:46;5.23;;;1.80;;
18917;SDS011;9591;52.742;13.650;2022-09-12T08:48:39;3.30;;;1.87;;
18917;SDS011;9591;52.742;13.650;2022-09-12T08:51:31;2.57;;;2.07;;
18917;SDS011;9591;52.742;13.650;2022-09-12T08:54:22;2.70;;;2.40;;
18917;SDS011;9591;52.742;13.650;2022-09-12T08:57:10;2.73;;;2.10;;
18917;SDS011;9591;52.742;13.650;2022-09-12T09:00:01;3.43;;;2.27;;
18917;SDS011;9591;52.742;13.650;2022-09-12T09:06:21;2.00;;;1.90;;
18917;SDS011;9591;52.742;13.650;2022-09-12T09:09:22;3.53;;;2.63;;
18917;SDS011;9591;52.742;13.650;2022-09-12T09:12:16;3.87;;;2.30;;
18917;SDS011;9591;52.742;13.650;2022-09-12T09:15:13;3.13;;;2.00;;
18917;SDS011;9591;52.742;13.650;2022-09-12T09:18:10;2.97;;;2.07;;
18917;SDS011;9591;52.742;13.650;2022-09-12T09:21:04;3.00;;;2.00;;
18917;SDS011;9591;52.742;13.650;2022-09-12T09:24:09;4.60;;;2.10;;
18917;SDS011;9591;52.742;13.650;2022-09-12T09:27:00;2.00;;;1.73;;
18917;SDS011;9591;52.742;13.650;2022-09-12T09:30:13;2.13;;;1.70;;
18917;SDS011;9591;52.742;13.650;2022-09-12T09:33:03;2.37;;;1.60;;
18917;SDS011;9591;52.742;13.650;2022-09-12T09:35:54;1.40;;;1.30;;
18917;SDS011;9591;52.742;13.650;2022-09-12T09:38:47;3.50;;;1.50;;
18917;SDS011;9591;52.742;13.650;2022-09-12T09:41:39;3.60;;;1.47;;
18917;SDS011;9591;52.742;13.650;2022-09-12T09:44:34;2.03;;;1.20;;
18917;SDS011;9591;52.742;13.650;2022-09-12T09:47:22;1.40;;;1.30;;
18917;SDS011;9591;52.742;13.650;2022-09-12T09:50:11;1.43;;;1.33;;
18917;SDS011;9591;52.742;13.650;2022-09-12T09:53:01;1.10;;;1.00;;
18917;SDS011;9591;52.742;13.650;2022-09-12T09:55:49;1.20;;;1.10;;
18917;SDS011;9591;52.742;13.650;2022-09-12T09:58:39;1.10;;;0.93;;
18917;SDS011;9591;52.742;13.650;2022-09-12T10:01:27;2.17;;;1.17;;
18917;SDS011;9591;52.742;13.650;2022-09-12T10:04:18;1.20;;;1.10;;
18917;SDS011;9591;52.742;13.650;2022-09-12T10:07:06;4.83;;;1.20;;
18917;SDS011;9591;52.742;13.650;2022-09-12T10:10:04;1.37;;;1.20;;
18917;SDS011;9591;52.742;13.650;2022-09-12T10:13:06;1.43;;;1.30;;
18917;SDS011;9591;52.742;13.650;2022-09-12T10:15:55;1.00;;;1.00;;
18917;SDS011;9591;52.742;13.650;2022-09-12T10:18:45;1.97;;;1.20;;
18917;SDS011;9591;52.742;13.650;2022-09-12T10:21:32;1.20;;;1.00;;
18917;SDS011;9591;52.742;13.650;2022-09-12T10:24:26;1.30;;;1.20;;
18917;SDS011;9591;52.742;13.650;2022-09-12T10:27:18;0.90;;;0.90;;
18917;SDS011;9591;52.742;13.650;2022-09-12T10:30:15;1.20;;;1.10;;
18917;SDS011;9591;52.742;13.650;2022-09-12T10:33:04;2.53;;;1.50;;
18917;SDS011;9591;52.742;13.650;2022-09-12T10:35:55;1.03;;;1.03;;
18917;SDS011;9591;52.742;13.650;2022-09-12T10:38:49;1.03;;;1.00;;
18917;SDS011;9591;52.742;13.650;2022-09-12T10:41:38;1.10;;;1.10;;
18917;SDS011;9591;52.742;13.650;2022-09-12T10:44:27;2.63;;;1.50;;
18917;SDS011;9591;52.742;13.650;2022-09-12T10:47:19;2.60;;;1.10;;
18917;SDS011;9591;52.742;13.650;2022-09-12T10:50:18;1.83;;;1.23;;
18917;SDS011;9591;52.742;13.650;2022-09-12T10:53:17;1.97;;;1.10;;
18917;SDS011;9591;52.742;13.650;2022-09-12T10:56:06;1.40;;;1.30;;
18917;SDS011;9591;52.742;13.650;2022-09-12T10:59:06;1.97;;;1.30;;
18917;SDS011;9591;52.742;13.650;2022-09-12T11:02:08;3.27;;;1.37;;
18917;SDS011;9591;52.742;13.650;2022-09-12T11:05:04;1.47;;;1.20;;
18917;SDS011;9591;52.742;13.650;2022-09-12T11:07:57;1.10;;;1.10;;
18917;SDS011;9591;52.742;13.650;2022-09-12T11:10:54;1.30;;;1.20;;
18917;SDS011;9591;52.742;13.650;2022-09-12T11:13:51;1.90;;;1.03;;
18917;SDS011;9591;52.742;13.650;2022-09-12T11:16:52;1.00;;;1.00;;
18917;SDS011;9591;52.742;13.650;2022-09-12T11:19:48;2.03;;;1.20;;
18917;SDS011;9591;52.742;13.650;2022-09-12T11:22:57;1.23;;;1.00;;
18917;SDS011;9591;52.742;13.650;2022-09-12T11:26:07;1.00;;;1.00;;
18917;SDS011;9591;52.742;13.650;2022-09-12T11:29:08;0.90;;;0.87;;
18917;SDS011;9591;52.742;13.650;2022-09-12T11:32:17;1.70;;;1.20;;
18917;SDS011;9591;52.742;13.650;2022-09-12T11:35:30;1.00;;;1.00;;
18917;SDS011;9591;52.742;13.650;2022-09-12T11:38:32;1.10;;;1.10;;
18917;SDS011;9591;52.742;13.650;2022-09-12T11:41:33;1.43;;;1.13;;
18917;SDS011;9591;52.742;13.650;2022-09-12T11:44:23;1.20;;;0.90;;
18917;SDS011;9591;52.742;13.650;2022-09-12T11:47:15;0.70;;;0.70;;
18917;SDS011;9591;52.742;13.650;2022-09-12T11:50:05;1.43;;;1.30;;
18917;SDS011;9591;52.742;13.650;2022-09-12T11:53:04;1.57;;;0.97;;
18917;SDS011;9591;52.742;13.650;2022-09-12T11:55:58;1.10;;;0.97;;
18917;SDS011;9591;52.742;13.650;2022-09-12T11:58:52;1.20;;;1.10;;
18917;SDS011;9591;52.742;13.650;2022-09-12T12:01:44;1.10;;;1.00;;
18917;SDS011;9591;52.742;13.650;2022-09-12T12:04:36;1.30;;;1.20;;
18917;SDS011;9591;52.742;13.650;2022-09-12T12:07:29;4.00;;;1.67;;
18917;SDS011;9591;52.742;13.650;2022-09-12T12:10:31;0.77;;;0.77;;
18917;SDS011;9591;52.742;13.650;2022-09-12T12:13:22;0.90;;;0.87;;
18917;SDS011;9591;52.742;13.650;2022-09-12T12:16:17;1.10;;;1.00;;
18917;SDS011;9591;52.742;13.650;2022-09-12T12:19:09;4.03;;;1.00;;
18917;SDS011;9591;52.742;13.650;2022-09-12T12:22:14;1.90;;;1.00;;
18917;SDS011;9591;52.742;13.650;2022-09-12T12:25:23;0.90;;;0.90;;
18917;SDS011;9591;52.742;13.650;2022-09-12T12:38:26;1.10;;;1.10;;
18917;SDS011;9591;52.742;13.650;2022-09-12T12:44:47;4.20;;;1.00;;
18917;SDS011;9591;52.742;13.650;2022-09-12T12:47:38;2.83;;;0.90;;
18917;SDS011;9591;52.742;13.650;2022-09-12T12:50:29;1.00;;;1.00;;
18917;SDS011;9591;52.742;13.650;2022-09-12T12:53:19;0.90;;;0.90;;
18917;SDS011;9591;52.742;13.650;2022-09-12T12:56:24;0.90;;;0.90;;
18917;SDS011;9591;52.742;13.650;2022-09-12T12:59:17;1.23;;;1.00;;
18917;SDS011;9591;52.742;13.650;2022-09-12T13:02:14;1.00;;;1.00;;
18917;SDS011;9591;52.742;13.650;2022-09-12T13:05:14;0.90;;;0.90;;
18917;SDS011;9591;52.742;13.650;2022-09-12T13:08:05;1.00;;;1.00;;
18917;SDS011;9591;52.742;13.650;2022-09-12T13:10:57;1.07;;;0.97;;
18917;SDS011;9591;52.742;13.650;2022-09-12T13:13:47;2.10;;;0.80;;
18917;SDS011;9591;52.742;13.650;2022-09-12T13:16:38;1.77;;;0.80;;
18917;SDS011;9591;52.742;13.650;2022-09-12T13:19:37;1.20;;;1.10;;
18917;SDS011;9591;52.742;13.650;2022-09-12T13:22:32;2.67;;;1.10;;
18917;SDS011;9591;52.742;13.650;2022-09-12T13:25:28;0.90;;;0.90;;
18917;SDS011;9591;52.742;13.650;2022-09-12T13:28:18;1.13;;;1.00;;
18917;SDS011;9591;52.742;13.650;2022-09-12T13:31:07;2.40;;;0.97;;
18917;SDS011;9591;52.742;13.650;2022-09-12T13:34:03;1.10;;;1.10;;
18917;SDS011;9591;52.742;13.650;2022-09-12T13:40:16;3.87;;;1.30;;
18917;SDS011;9591;52.742;13.650;2022-09-12T13:43:15;1.23;;;1.13;;
18917;SDS011;9591;52.742;13.650;2022-09-12T13:46:11;1.27;;;1.20;;
18917;SDS011;9591;52.742;13.650;2022-09-12T13:49:04;1.93;;;1.10;;
18917;SDS011;9591;52.742;13.650;2022-09-12T13:52:08;1.13;;;1.03;;
18917;SDS011;9591;52.742;13.650;2022-09-12T13:55:04;1.17;;;1.07;;
18917;SDS011;9591;52.742;13.650;2022-09-12T13:57:55;1.93;;;1.00;;
18917;SDS011;9591;52.742;13.650;2022-09-12T14:00:44;1.37;;;1.00;;
18917;SDS011;9591;52.742;13.650;2022-09-12T14:03:32;1.07;;;0.80;;
18917;SDS011;9591;52.742;13.650;2022-09-12T14:06:44;1.23;;;1.13;;
18917;SDS011;9591;52.742;13.650;2022-09-12T14:09:35;1.27;;;1.17;;
18917;SDS011;9591;52.742;13.650;2022-09-12T14:12:25;4.10;;;1.03;;
18917;SDS011;9591;52.742;13.650;2022-09-12T14:15:16;1.27;;;1.20;;
18917;SDS011;9591;52.742;13.650;2022-09-12T14:18:18;0.90;;;0.90;;
18917;SDS011;9591;52.742;13.650;2022-09-12T14:21:08;1.27;;;1.17;;
18917;SDS011;9591;52.742;13.650;2022-09-12T14:23:58;1.60;;;1.27;;
18917;SDS011;9591;52.742;13.650;2022-09-12T14:26:46;1.50;;;1.23;;
18917;SDS011;9591;52.742;13.650;2022-09-12T14:29:34;1.40;;;1.30;;
18917;SDS011;9591;52.742;13.650;2022-09-12T14:32:24;0.80;;;0.80;;
18917;SDS011;9591;52.742;13.650;2022-09-12T14:35:19;1.20;;;1.20;;
18917;SDS011;9591;52.742;13.650;2022-09-12T14:38:06;1.27;;;1.17;;
18917;SDS011;9591;52.742;13.650;2022-09-12T14:40:59;2.87;;;1.20;;
18917;SDS011;9591;52.742;13.650;2022-09-12T14:43:50;1.80;;;1.40;;
18917;SDS011;9591;52.742;13.650;2022-09-12T14:46:39;1.70;;;1.00;;
18917;SDS011;9591;52.742;13.650;2022-09-12T14:49:30;1.00;;;1.00;;
18917;SDS011;9591;52.742;13.650;2022-09-12T14:52:22;1.10;;;1.00;;
18917;SDS011;9591;52.742;13.650;2022-09-12T14:55:22;1.00;;;1.00;;
18917;SDS011;9591;52.742;13.650;2022-09-12T14:58:15;1.00;;;1.00;;
18917;SDS011;9591;52.742;13.650;2022-09-12T15:07:29;1.03;;;1.00;;
18917;SDS011;9591;52.742;13.650;2022-09-12T15:10:19;1.50;;;1.20;;
18917;SDS011;9591;52.742;13.650;2022-09-12T15:13:16;1.87;;;1.30;;
18917;SDS011;9591;52.742;13.650;2022-09-12T15:16:06;1.23;;;1.13;;
18917;SDS011;9591;52.742;13.650;2022-09-12T15:18:55;1.20;;;1.10;;
18917;SDS011;9591;52.742;13.650;2022-09-12T15:21:42;1.40;;;1.30;;
18917;SDS011;9591;52.742;13.650;2022-09-12T15:24:30;1.30;;;1.30;;
18917;SDS011;9591;52.742;13.650;2022-09-12T15:27:17;1.20;;;1.10;;
18917;SDS011;9591;52.742;13.650;2022-09-12T15:30:04;1.03;;;0.93;;
18917;SDS011;9591;52.742;13.650;2022-09-12T15:32:51;1.23;;;1.13;;
18917;SDS011;9591;52.742;13.650;2022-09-12T15:35:38;1.20;;;1.10;;
18917;SDS011;9591;52.742;13.650;2022-09-12T15:38:25;1.43;;;1.30;;
18917;SDS011;9591;52.742;13.650;2022-09-12T15:41:15;1.17;;;1.17;;
18917;SDS011;9591;52.742;13.650;2022-09-12T15:44:03;1.40;;;1.20;;
18917;SDS011;9591;52.742;13.650;2022-09-12T15:46:52;3.40;;;1.17;;
18917;SDS011;9591;52.742;13.650;2022-09-12T15:49:38;1.17;;;1.17;;
18917;SDS011;9591;52.742;13.650;2022-09-12T15:52:26;1.10;;;1.00;;
18917;SDS011;9591;52.742;13.650;2022-09-12T15:55:14;1.40;;;1.30;;
18917;SDS011;9591;52.742;13.650;2022-09-12T15:58:04;2.50;;;1.10;;
18917;SDS011;9591;52.742;13.650;2022-09-12T16:00:51;1.87;;;1.20;;
18917;SDS011;9591;52.742;13.650;2022-09-12T16:03:38;1.37;;;1.27;;
18917;SDS011;9591;52.742;13.650;2022-09-12T16:06:25;1.53;;;1.23;;
18917;SDS011;9591;52.742;13.650;2022-09-12T16:09:20;1.20;;;1.10;;
18917;SDS011;9591;52.742;13.650;2022-09-12T16:12:08;1.00;;;1.00;;
18917;SDS011;9591;52.742;13.650;2022-09-12T16:14:55;1.30;;;1.20;;
18917;SDS011;9591;52.742;13.650;2022-09-12T16:17:42;1.40;;;1.30;;
18917;SDS011;9591;52.742;13.650;2022-09-12T16:20:29;1.40;;;1.30;;
18917;SDS011;9591;52.742;13.650;2022-09-12T16:23:16;1.97;;;1.07;;
18917;SDS011;9591;52.742;13.650;2022-09-12T16:26:03;1.33;;;1.23;;
18917;SDS011;9591;52.742;13.650;2022-09-12T16:28:53;2.27;;;1.20;;
18917;SDS011;9591;52.742;13.650;2022-09-12T16:31:42;2.00;;;1.37;;
18917;SDS011;9591;52.742;13.650;2022-09-12T16:34:28;3.87;;;1.43;;
18917;SDS011;9591;52.742;13.650;2022-09-12T16:37:15;1.50;;;1.40;;
18917;SDS011;9591;52.742;13.650;2022-09-12T16:40:02;1.80;;;1.30;;
18917;SDS011;9591;52.742;13.650;2022-09-12T16:42:51;1.50;;;1.40;;
18917;SDS011;9591;52.742;13.650;2022-09-12T16:45:37;1.37;;;1.30;;
18917;SDS011;9591;52.742;13.650;2022-09-12T16:48:26;2.83;;;1.57;;
18917;SDS011;9591;52.742;13.650;2022-09-12T16:51:12;2.90;;;1.40;;
18917;SDS011;9591;52.742;13.650;2022-09-12T16:53:59;1.70;;;1.60;;
18917;SDS011;9591;52.742;13.650;2022-09-12T16:56:46;2.73;;;2.27;;
18917;SDS011;9591;52.742;13.650;2022-09-12T16:59:33;2.57;;;2.20;;
18917;SDS011;9591;52.742;13.650;2022-09-12T17:02:20;3.07;;;2.60;;
18917;SDS011;9591;52.742;13.650;2022-09-12T17:05:08;2.53;;;2.27;;
18917;SDS011;9591;52.742;13.650;2022-09-12T17:07:55;5.90;;;3.77;;
18917;SDS011;9591;52.742;13.650;2022-09-12T17:10:42;7.67;;;3.03;;
18917;SDS011;9591;52.742;13.650;2022-09-12T17:13:29;5.30;;;3.50;;
18917;SDS011;9591;52.742;13.650;2022-09-12T17:16:37;3.73;;;3.30;;
18917;SDS011;9591;52.742;13.650;2022-09-12T17:19:26;3.17;;;2.53;;
18917;SDS011;9591;52.742;13.650;2022-09-12T17:22:15;3.17;;;2.40;;
18917;SDS011;9591;52.742;13.650;2022-09-12T17:25:02;6.43;;;2.40;;
18917;SDS011;9591;52.742;13.650;2022-09-12T17:27:49;4.50;;;2.30;;
18917;SDS011;9591;52.742;13.650;2022-09-12T17:30:36;7.40;;;2.50;;
18917;SDS011;9591;52.742;13.650;2022-09-12T17:33:22;3.60;;;2.10;;
18917;SDS011;9591;52.742;13.650;2022-09-12T17:36:10;6.00;;;2.07;;
18917;SDS011;9591;52.742;13.650;2022-09-12T17:39:01;3.60;;;2.03;;
18917;SDS011;9591;52.742;13.650;2022-09-12T17:41:49;7.03;;;2.23;;
18917;SDS011;9591;52.742;13.650;2022-09-12T17:44:36;6.93;;;2.03;;